Latest Coastal Weather Observations for Kiama

IDN60701

Issued at 12:01 am EST Tuesday 5 May 2015 (issued every 10 minutes, with the page automatically refreshed every 10 minutes)

About coastal observations | Map of coastal stations | Coastal observations for NSW | Marine services | Other Formats
Station Details ID: 068242 Name: KIAMA (BOMBO HEADLAND) Lat: -34.65 Lon: 150.86 Height: 15.5 m
Data from the previous 72 hours. | See also: Recent months at Kiama
Date/Time
EST
Temp

°C
Wind Pressure Rain
since 9am
mm
Weather Cloud Vis
km
Sea
Height
m
Swell
Dir
 
Speed
knots
Gust
knots
hPa Trend Height
m
Period
s
Dir
05/12:00am 16.3 NNW 4 7 - - 0.0 - - - - - - -
 
Date/Time
EST
Temp

°C
Wind Pressure Rain
since 9am
mm
Weather Cloud Vis
km
Sea
Height
m
Swell
Dir
 
Speed
knots
Gust
knots
hPa Trend Height
m
Period
s
Dir
04/11:30pm 16.5 NNW 4 7 - - 0.0 - - - - - - -
04/11:00pm 16.3 NNW 4 7 - - 0.0 - - - - - - -
04/10:30pm 16.6 NNW 5 6 - - 0.0 - - - - - - -
04/10:00pm 16.4 NW 2 4 - - 0.0 - - - - - - -
04/09:30pm 16.2 NW 4 8 - - 0.0 - - - - - - -
04/09:00pm 16.6 NNW 2 5 - - 0.0 - - - - - - -
04/08:30pm 16.7 WNW 5 6 - - 0.0 - - - - - - -
04/08:00pm 16.7 NW 6 6 - - 0.0 - - - - - - -
04/07:30pm 16.8 NW 5 6 - - 0.0 - - - - - - -
04/07:00pm 17.1 NW 4 5 - - 0.0 - - - - - - -
04/06:30pm 17.1 NW 3 4 - - 0.0 - - - - - - -
04/06:00pm 17.4 CALM 0 0 - - 0.0 - - - - - - -
04/05:30pm 18.1 CALM 0 0 - - 0.0 - - - - - - -
04/05:00pm 18.5 CALM 0 0 - - 0.0 - - - - - - -
04/04:30pm 18.9 SSE 3 3 - - 0.0 - - - - - - -
04/04:00pm 19.6 SE 4 5 - - 0.0 - - - - - - -
04/03:30pm 19.8 SE 5 6 - - 0.0 - - - - - - -
04/03:00pm 19.9 SE 4 5 - - 0.0 - - - - - - -
04/02:30pm 20.2 SE 6 7 - - 0.0 - - - - - - -
04/02:00pm 20.2 SE 7 9 - - 0.0 - - - - - - -
04/01:30pm 20.2 SSE 7 9 - - 0.0 - - - - - - -
04/01:00pm 20.1 S 7 9 - - 0.0 - - - - - - -
04/12:30pm 20.0 SSW 9 11 - - 0.0 - - - - - - -
04/12:00pm 19.8 SSW 10 12 - - 0.0 - - - - - - -
04/11:30am 19.4 SSW 11 13 - - 0.0 - - - - - - -
04/11:00am 19.3 SSW 13 17 - - 0.0 - - - - - - -
04/10:30am 19.6 SSW 10 14 - - 0.0 - - - - - - -
04/10:00am 19.4 SW 12 18 - - 0.0 - - - - - - -
04/09:30am 18.9 SW 12 18 - - 0.0 - - - - - - -
04/09:00am 18.7 SW 11 16 - - 0.0 - - - - - - -
04/08:30am 18.5 SW 12 17 - - 0.0 - - - - - - -
04/08:00am 17.9 SW 11 18 - - 0.0 - - - - - - -
04/07:30am 17.6 SW 12 16 - - 0.0 - - - - - - -
04/07:00am 17.3 SW 15 19 - - 0.0 - - - - - - -
04/06:30am 17.1 SW 10 16 - - 0.0 - - - - - - -
04/06:00am 16.9 SW 12 18 - - 0.0 - - - - - - -
04/05:30am 16.9 SW 10 17 - - 0.0 - - - - - - -
04/05:00am 16.6 SW 9 13 - - 0.0 - - - - - - -
04/04:30am 16.6 SW 8 12 - - 0.0 - - - - - - -
04/04:00am 16.9 SW 11 15 - - 0.0 - - - - - - -
04/03:30am 17.1 SW 10 15 - - 0.0 - - - - - - -
04/03:00am 17.6 SW 11 16 - - 0.0 - - - - - - -
04/02:30am 17.8 SW 13 20 - - 0.0 - - - - - - -
04/02:00am 17.7 SW 7 14 - - 0.0 - - - - - - -
04/01:30am 17.5 SW 8 14 - - 0.0 - - - - - - -
04/01:00am 17.6 SW 8 15 - - 0.0 - - - - - - -
04/12:30am 17.9 SW 13 19 - - 0.0 - - - - - - -
04/12:00am 18.0 SSW 11 17 - - 0.0 - - - - - - -
 
Date/Time
EST
Temp

°C
Wind Pressure Rain
since 9am
mm
Weather Cloud Vis
km
Sea
Height
m
Swell
Dir
 
Speed
knots
Gust
knots
hPa Trend Height
m
Period
s
Dir
03/11:30pm 18.5 SSW 9 13 - - 0.0 - - - - - - -
03/11:00pm 18.5 SW 9 17 - - 0.0 - - - - - - -
03/10:30pm 18.6 SW 13 25 - - 0.0 - - - - - - -
03/10:00pm 18.4 SW 13 20 - - 0.0 - - - - - - -
03/09:30pm 18.6 SW 12 19 - - 0.0 - - - - - - -
03/09:00pm 18.9 SW 13 20 - - 0.0 - - - - - - -
03/08:30pm 19.0 SW 14 19 - - 0.0 - - - - - - -
03/08:00pm 19.2 SSW 14 19 - - 0.0 - - - - - - -
03/07:30pm 19.2 SSW 15 20 - - 0.0 - - - - - - -
03/07:00pm 19.2 SSW 14 19 - - 0.0 - - - - - - -
03/06:30pm 19.4 SSW 16 21 - - 0.0 - - - - - - -
03/06:00pm 19.4 SSW 14 19 - - 0.0 - - - - - - -
03/05:30pm 19.5 SSW 17 25 - - 0.0 - - - - - - -
03/05:00pm 19.6 SSW 15 21 - - 0.0 - - - - - - -
03/04:30pm 19.7 SSW 14 21 - - 0.0 - - - - - - -
03/04:14pm 19.8 SSW 15 26 - - 0.0 - - - - - - -
03/04:00pm 19.8 SSW 17 23 - - 0.0 - - - - - - -
03/03:30pm 19.8 SSW 17 25 - - 0.0 - - - - - - -
03/03:00pm 20.2 SSW 21 27 - - 0.0 - - - - - - -
03/02:30pm 20.8 SSW 17 24 - - 0.0 - - - - - - -
03/02:00pm 20.8 S 18 25 - - 0.0 - - - - - - -
03/01:30pm 20.2 SSW 15 19 - - 0.0 - - - - - - -
03/01:00pm 20.0 S 15 20 - - 0.0 - - - - - - -
03/12:30pm 20.1 SSW 14 22 - - 0.0 - - - - - - -
03/12:00pm 20.7 SSW 16 21 - - 0.0 - - - - - - -
03/11:30am 20.0 SSW 12 16 - - 0.0 - - - - - - -
03/11:00am 20.2 SSW 13 21 - - 0.0 - - - - - - -
03/10:30am 20.1 SSW 16 22 - - 0.0 - - - - - - -
03/10:00am 19.7 SSW 16 22 - - 0.0 - - - - - - -
03/09:30am 19.3 SSW 14 18 - - 0.0 - - - - - - -
03/09:00am 19.1 SSW 14 19 - - 6.0 - - - - - - -
03/08:30am 18.9 SSW 15 20 - - 6.0 - - - - - - -
03/08:00am 18.8 SSW 14 18 - - 6.0 - - - - - - -
03/07:30am 18.6 SSW 14 17 - - 5.8 - - - - - - -
03/07:00am 18.7 SSW 12 17 - - 5.6 - - - - - - -
03/06:30am 18.8 SSW 12 17 - - 5.6 - - - - - - -
03/06:00am 18.7 SSW 13 17 - - 5.6 - - - - - - -
03/05:30am 18.6 SSW 13 16 - - 5.6 - - - - - - -
03/05:00am 18.6 SSW 13 17 - - 5.6 - - - - - - -
03/04:30am 18.6 SSW 13 15 - - 5.6 - - - - - - -
03/04:00am 18.7 SSW 13 18 - - 5.6 - - - - - - -
03/03:30am 18.7 SSW 14 18 - - 5.6 - - - - - - -
03/03:00am 18.8 SSW 12 15 - - 5.6 Recent precip. - - - - - -
03/02:30am 18.8 SSW 10 15 - - 5.2 - - - - - - -
03/02:00am 18.7 SSW 12 17 - - 5.0 - - - - - - -
03/01:30am 18.8 SSW 10 13 - - 4.8 - - - - - - -
03/01:00am 18.8 SSW 11 13 - - 4.4 - - - - - - -
03/12:30am 19.1 SSW 10 15 - - 3.6 - - - - - - -
03/12:00am 19.2 SSW 11 13 - - 3.6 - - - - - - -
 
Date/Time
EST
Temp

°C
Wind Pressure Rain
since 9am
mm
Weather Cloud Vis
km
Sea
Height
m
Swell
Dir
 
Speed
knots
Gust
knots
hPa Trend Height
m
Period
s
Dir
02/11:30pm 19.2 SSW 11 15 - - 3.6 - - - - - - -
02/11:00pm 19.3 SSW 6 10 - - 3.6 - - - - - - -
02/10:30pm 19.2 SSW 9 11 - - 3.6 - - - - - - -
02/10:00pm 18.3 WSW 2 3 - - 3.6 - - - - - - -
02/09:30pm 18.3 SW 3 5 - - 3.6 - - - - - - -
02/09:00pm 18.4 CALM 0 3 - - 3.6 - - - - - - -
02/08:30pm 18.5 WSW 3 4 - - 3.6 - - - - - - -
02/08:00pm 18.4 SW 1 3 - - 3.6 - - - - - - -
02/07:30pm 18.5 SW 2 5 - - 3.6 - - - - - - -
02/07:00pm 18.5 SW 3 4 - - 3.6 - - - - - - -
02/06:30pm 18.6 SW 2 3 - - 3.6 - - - - - - -
02/06:00pm 18.6 CALM 0 3 - - 3.6 Recent precip. - - - - - -
02/05:30pm 18.9 S 3 4 - - 3.6 - - - - - - -
02/05:00pm 19.0 S 4 6 - - 3.2 - - - - - - -
02/04:30pm 19.2 SSW 5 5 - - 3.2 - - - - - - -
02/04:00pm 19.2 SE 5 8 - - 3.2 - - - - - - -
02/03:30pm 19.8 E 5 7 - - 3.0 - - - - - - -
02/03:00pm 19.9 CALM 0 4 - - 3.0 Recent precip. - - - - - -
02/02:30pm 19.6 SSE 3 5 - - 1.8 - - - - - - -
02/02:00pm 19.4 SSE 5 7 - - 1.8 - - - - - - -
02/01:30pm 19.8 SSE 11 13 - - 0.6 - - - - - - -
02/01:00pm 20.3 S 8 12 - - 0.6 - - - - - - -
02/12:30pm 19.6 S 11 15 - - 0.6 - - - - - - -
02/12:00pm 20.1 S 10 13 - - 0.6 - - - - - - -
02/11:30am 19.9 S 9 12 - - 0.6 - - - - - - -
02/11:00am 20.0 S 9 11 - - 0.6 - - - - - - -
02/10:30am 19.5 S 7 10 - - 0.6 - - - - - - -
02/10:00am 19.3 S 4 6 - - 0.6 - - - - - - -
02/09:30am 18.3 CALM 0 2 - - 0.6 - - - - - - -
02/09:00am 18.3 W 1 5 - - 4.2 Recent precip. - - - - - -
02/08:30am 18.2 SSW 3 6 - - 3.4 - - - - - - -
02/08:00am 17.6 SSW 1 2 - - 3.4 - - - - - - -
02/07:30am 16.8 CALM 0 0 - - 3.4 - - - - - - -
02/07:00am 16.6 CALM 0 4 - - 3.4 - - - - - - -
02/06:30am 16.1 WSW 4 5 - - 3.4 - - - - - - -
02/06:00am 16.3 W 5 5 - - 3.4 - - - - - - -
02/05:30am 16.4 WSW 4 4 - - 3.4 - - - - - - -
02/05:00am 16.7 WSW 1 4 - - 3.4 - - - - - - -
02/04:30am 16.9 CALM 0 3 - - 3.2 - - - - - - -
02/04:00am 17.2 SSW 7 9 - - 3.0 - - - - - - -
02/03:30am 17.3 SSW 4 7 - - 3.0 - - - - - - -
02/03:00am 17.4 SSW 2 4 - - 3.0 Recent precip. - - - - - -
02/02:30am 17.8 S 6 10 - - 2.8 - - - - - - -
02/02:00am 18.0 S 5 7 - - 1.6 - - - - - - -
02/01:30am 17.9 SSW 7 9 - - 1.4 - - - - - - -
02/01:00am 17.7 SSW 9 11 - - 1.4 - - - - - - -
02/12:30am 17.5 SW 3 7 - - 1.4 - - - - - - -

Other Formats:

Comma delimited format used in spreadsheet applications
http://www.bom.gov.au/fwo/IDN60701/IDN60701.95749.axf

JavaScript Object Notation format (JSON) in row-major order
http://www.bom.gov.au/fwo/IDN60701/IDN60701.95749.json